Time;durP1;ratioP1;P1;durP2;ratioP2;P2;SDS_P1;SDS_P2;PMS_P1;PMS_P2;Temp;Humidity;BMP_temperature;BMP_pressure;BME280_temperature;BME280_humidity;BME280_pressure;Samples;Min_cycle;Max_cycle;Signal;HPM_P1;HPM_P2
2023/02/09 00:00:55;;;;;;;48.45;25.52;;;-1.20;99.90;;;;;;5058312;28;20020;-59
2023/02/09 00:03:42;;;;;;;51.38;26.17;;;-1.20;99.90;;;;;;5078875;28;20039;-61
2023/02/09 00:06:29;;;;;;;49.30;27.83;;;-1.20;99.90;;;;;;5093777;28;20028;-61
2023/02/09 00:09:15;;;;;;;50.40;26.23;;;-1.20;99.90;;;;;;5084047;28;20512;-57
2023/02/09 00:15:06;;;;;;;44.55;24.90;;;-1.20;99.90;;;;;;5089493;28;20023;-58
2023/02/09 00:17:52;;;;;;;46.42;26.20;;;-1.20;99.90;;;;;;5093631;28;20039;-60
2023/02/09 00:20:38;;;;;;;50.33;25.35;;;-1.30;99.90;;;;;;5092092;28;20029;-58
2023/02/09 00:23:24;;;;;;;42.92;26.30;;;-1.20;99.90;;;;;;5071150;28;20039;-57
2023/02/09 00:26:10;;;;;;;45.08;26.55;;;-1.20;99.90;;;;;;5071477;28;20030;-59
2023/02/09 00:28:56;;;;;;;47.58;26.35;;;-1.20;99.90;;;;;;5069186;28;20032;-61
2023/02/09 00:31:42;;;;;;;47.60;26.70;;;-1.20;99.90;;;;;;5091337;28;20040;-58
2023/02/09 00:34:32;;;;;;;49.88;25.85;;;-1.30;99.90;;;;;;5078456;28;20496;-60
2023/02/09 00:37:17;;;;;;;46.30;27.73;;;-1.30;99.90;;;;;;5075970;28;20044;-58
2023/02/09 00:40:05;;;;;;;49.60;27.35;;;-1.30;99.90;;;;;;5073745;28;20530;-61
2023/02/09 00:42:51;;;;;;;52.13;27.17;;;-1.40;99.90;;;;;;5073443;28;20408;-58
2023/02/09 00:45:37;;;;;;;50.88;27.08;;;-1.40;99.90;;;;;;5073198;28;20029;-58
2023/02/09 00:48:23;;;;;;;48.63;28.48;;;-1.60;99.90;;;;;;5087590;28;20032;-61
2023/02/09 00:51:09;;;;;;;51.85;28.25;;;-1.50;99.90;;;;;;5073257;22;20067;-58
2023/02/09 00:53:58;;;;;;;51.53;26.70;;;-1.50;99.90;;;;;;5018957;28;20041;-61
2023/02/09 00:56:44;;;;;;;49.05;27.65;;;-1.40;99.90;;;;;;5010967;28;20117;-59
2023/02/09 00:59:32;;;;;;;47.35;27.50;;;-1.50;99.90;;;;;;5010983;28;20030;-59
2023/02/09 01:02:18;;;;;;;49.45;27.10;;;-1.50;99.90;;;;;;4990781;28;20614;-60
2023/02/09 01:05:04;;;;;;;43.85;25.45;;;-1.50;99.90;;;;;;4989825;28;20491;-58
2023/02/09 01:07:50;;;;;;;51.17;26.00;;;-1.40;99.90;;;;;;4978003;28;20031;-59
2023/02/09 01:10:37;;;;;;;52.47;26.77;;;-1.50;99.90;;;;;;4991988;28;20571;-60
2023/02/09 01:13:23;;;;;;;46.70;26.77;;;-1.50;99.90;;;;;;4972594;28;20434;-60
2023/02/09 01:16:13;;;;;;;48.65;26.88;;;-1.40;99.90;;;;;;4977011;28;20243;-59
2023/02/09 01:19:00;;;;;;;46.70;25.08;;;-1.40;99.90;;;;;;4992273;28;20503;-59
2023/02/09 01:21:47;;;;;;;49.63;26.33;;;-1.40;99.90;;;;;;4991898;28;20044;-59
2023/02/09 01:24:35;;;;;;;50.35;27.50;;;-1.40;99.90;;;;;;4992235;28;20034;-60
2023/02/09 01:27:20;;;;;;;48.28;25.35;;;-1.40;99.90;;;;;;4985382;28;20027;-60
2023/02/09 01:30:07;;;;;;;48.22;26.58;;;-1.40;99.90;;;;;;4971429;28;20053;-60
2023/02/09 01:32:53;;;;;;;55.30;28.38;;;-1.40;99.90;;;;;;4972792;28;20078;-60
2023/02/09 01:35:39;;;;;;;51.70;28.02;;;-1.40;99.90;;;;;;4975945;28;20069;-60
2023/02/09 01:38:25;;;;;;;54.45;29.45;;;-1.50;99.90;;;;;;4992210;28;20034;-60
2023/02/09 01:41:11;;;;;;;50.30;26.80;;;-1.50;99.90;;;;;;4990710;28;20118;-53
2023/02/09 01:44:00;;;;;;;50.42;27.70;;;-1.50;99.90;;;;;;4977600;28;20031;-56
2023/02/09 01:46:46;;;;;;;53.97;27.65;;;-1.60;99.90;;;;;;4976988;28;20030;-57
2023/02/09 01:49:32;;;;;;;47.40;26.58;;;-1.60;99.90;;;;;;4991643;28;20133;-61
2023/02/09 01:52:23;;;;;;;54.15;28.02;;;-1.60;99.90;;;;;;4991315;28;20081;-53
2023/02/09 01:55:14;;;;;;;49.47;27.02;;;-1.60;99.90;;;;;;4990746;28;20037;-53
2023/02/09 01:58:06;;;;;;;48.83;26.23;;;-1.60;99.90;;;;;;4977355;28;20034;-56
2023/02/09 02:00:52;;;;;;;47.50;25.88;;;-1.60;99.90;;;;;;4990262;28;20030;-58
2023/02/09 02:03:38;;;;;;;48.70;27.48;;;-1.60;99.90;;;;;;4991990;28;20014;-55
2023/02/09 02:06:24;;;;;;;44.95;26.13;;;-1.60;99.90;;;;;;4991423;28;20029;-54
2023/02/09 02:09:14;;;;;;;45.60;24.20;;;-1.60;99.90;;;;;;4991382;28;20030;-56
2023/02/09 02:12:01;;;;;;;43.45;24.70;;;-1.60;99.90;;;;;;4990635;28;20031;-55
2023/02/09 02:14:47;;;;;;;43.40;24.75;;;-1.60;99.90;;;;;;4976381;28;20081;-55
2023/02/09 02:18:06;;;;;;;46.95;24.35;;;-1.60;99.90;;;;;;4990951;28;20069;-57
2023/02/09 02:21:11;;;;;;;46.22;24.98;;;-1.70;99.90;;;;;;4990114;28;20803;-57
2023/02/09 02:24:16;;;;;;;46.67;25.50;;;-1.70;99.90;;;;;;4977571;28;20037;-59
2023/02/09 02:27:29;;;;;;;46.90;26.13;;;-1.70;99.90;;;;;;4991565;28;20078;-55
2023/02/09 02:30:38;;;;;;;45.97;24.00;;;-1.70;99.90;;;;;;4990359;28;20038;-59
2023/02/09 02:33:39;;;;;;;45.65;24.15;;;-1.80;99.90;;;;;;4990959;28;20030;-60
2023/02/09 02:36:52;;;;;;;43.40;24.10;;;-1.80;99.90;;;;;;4989439;28;20026;-56
2023/02/09 02:39:40;;;;;;;45.13;23.50;;;-1.70;99.90;;;;;;4990398;28;20026;-58
2023/02/09 02:42:47;;;;;;;48.33;25.92;;;-1.70;99.90;;;;;;4989969;28;20053;-57
2023/02/09 02:46:05;;;;;;;44.72;23.23;;;-1.70;99.90;;;;;;4989554;28;20023;-58
2023/02/09 02:48:55;;;;;;;44.38;22.98;;;-1.80;99.90;;;;;;4971412;28;20074;-58
2023/02/09 02:51:44;;;;;;;40.30;21.40;;;-1.80;99.90;;;;;;4980480;28;20088;-54
2023/02/09 02:54:48;;;;;;;41.78;22.25;;;-1.80;99.90;;;;;;4989388;28;20029;-57
2023/02/09 02:57:38;;;;;;;37.53;21.77;;;-1.80;99.90;;;;;;4990433;28;20137;-57
2023/02/09 03:00:31;;;;;;;36.17;20.73;;;-1.80;99.90;;;;;;4990847;28;20487;-56
2023/02/09 03:03:23;;;;;;;37.40;21.17;;;-1.80;99.90;;;;;;4971997;28;20026;-56
2023/02/09 03:06:11;;;;;;;37.97;20.80;;;-1.70;99.90;;;;;;4974102;28;20427;-59
2023/02/09 03:08:57;;;;;;;35.60;21.33;;;-1.70;99.90;;;;;;4990716;28;20058;-57
2023/02/09 03:11:48;;;;;;;37.22;19.83;;;-1.70;99.90;;;;;;4988931;28;20026;-60
2023/02/09 03:14:46;;;;;;;37.90;20.70;;;-1.60;99.90;;;;;;4988791;28;20210;-58
2023/02/09 03:17:38;;;;;;;41.92;24.58;;;-1.70;99.90;;;;;;4990127;28;20162;-59
2023/02/09 03:20:49;;;;;;;40.47;21.83;;;-1.70;99.90;;;;;;4990379;28;20030;-57
2023/02/09 03:24:05;;;;;;;38.28;21.75;;;-1.80;99.90;;;;;;4972483;28;20487;-59
2023/02/09 03:26:58;;;;;;;38.22;23.00;;;-1.80;99.90;;;;;;4976875;28;20049;-56
2023/02/09 03:29:48;;;;;;;42.85;22.52;;;-1.90;99.90;;;;;;4990567;28;20080;-58
2023/02/09 03:32:43;;;;;;;45.38;23.92;;;-1.90;99.90;;;;;;4990368;28;20509;-60
2023/02/09 03:35:40;;;;;;;41.03;22.00;;;-2.00;99.90;;;;;;4989248;28;20053;-57
2023/02/09 03:38:26;;;;;;;40.00;21.52;;;-2.00;99.90;;;;;;4989756;28;20746;-59
2023/02/09 03:41:12;;;;;;;37.00;20.65;;;-2.10;99.90;;;;;;4989955;28;20510;-58
2023/02/09 03:47:05;;;;;;;34.80;18.25;;;-2.00;99.90;;;;;;4989111;28;20039;-58
2023/02/09 03:49:51;;;;;;;33.67;18.70;;;-2.00;99.90;;;;;;4990668;28;20069;-58
2023/02/09 03:52:38;;;;;;;36.38;18.52;;;-2.00;99.90;;;;;;4990019;28;20125;-56
2023/02/09 03:55:24;;;;;;;34.22;18.23;;;-2.00;99.90;;;;;;4990109;28;20034;-58
2023/02/09 03:58:10;;;;;;;34.35;17.58;;;-1.80;99.90;;;;;;4971434;28;20109;-57
2023/02/09 04:01:03;;;;;;;34.35;16.98;;;-1.80;99.90;;;;;;4984436;28;20034;-58
2023/02/09 04:03:49;;;;;;;32.53;18.38;;;-1.80;99.90;;;;;;4989515;28;20022;-58
2023/02/09 04:06:35;;;;;;;31.75;17.38;;;-2.00;99.90;;;;;;4990147;28;20049;-59
2023/02/09 04:09:21;;;;;;;31.20;17.90;;;-2.00;99.90;;;;;;4993354;28;20015;-56
2023/02/09 04:12:07;;;;;;;32.92;18.38;;;-2.10;99.90;;;;;;4992999;28;20114;-56
2023/02/09 04:14:53;;;;;;;31.52;17.50;;;-2.10;99.90;;;;;;4993318;28;20038;-59
2023/02/09 04:17:39;;;;;;;35.50;18.52;;;-2.10;99.90;;;;;;4992726;28;20038;-59
2023/02/09 04:20:25;;;;;;;30.63;17.20;;;-2.20;99.90;;;;;;4993245;28;20041;-57
2023/02/09 04:23:12;;;;;;;33.70;18.98;;;-2.10;99.90;;;;;;4991721;28;20407;-56
2023/02/09 04:25:57;;;;;;;30.20;17.92;;;-2.10;99.90;;;;;;4991680;28;20046;-58
2023/02/09 04:28:44;;;;;;;31.75;17.42;;;-2.10;99.90;;;;;;4974071;28;20475;-57
2023/02/09 04:31:30;;;;;;;31.05;17.70;;;-2.00;99.90;;;;;;4982688;28;20411;-55
2023/02/09 04:34:16;;;;;;;29.35;15.88;;;-2.00;99.90;;;;;;4991732;28;20022;-55
2023/02/09 04:37:02;;;;;;;28.27;16.10;;;-2.00;99.90;;;;;;4978036;28;20026;-57
2023/02/09 04:39:48;;;;;;;30.40;15.57;;;-1.90;99.90;;;;;;4978734;28;20037;-60
2023/02/09 04:42:34;;;;;;;28.70;15.57;;;-1.90;99.90;;;;;;4993231;28;20045;-59
2023/02/09 04:45:20;;;;;;;30.98;15.90;;;-1.80;99.90;;;;;;4991396;28;20023;-55
2023/02/09 04:48:07;;;;;;;27.70;15.68;;;-1.90;99.90;;;;;;4977855;28;20022;-55
2023/02/09 04:50:53;;;;;;;29.33;16.80;;;-1.90;99.90;;;;;;4992635;28;20077;-55
2023/02/09 04:53:39;;;;;;;25.77;14.57;;;-1.90;99.90;;;;;;4992333;28;20034;-56
2023/02/09 04:56:25;;;;;;;29.42;16.30;;;-1.90;99.90;;;;;;4990358;28;20048;-59
2023/02/09 05:02:16;;;;;;;29.25;15.45;;;-1.90;99.90;;;;;;4991798;28;20027;-57
2023/02/09 05:05:02;;;;;;;27.52;14.50;;;-1.80;99.90;;;;;;4991298;28;20121;-56
2023/02/09 05:07:48;;;;;;;26.33;14.75;;;-1.80;99.90;;;;;;4992010;28;20033;-59
2023/02/09 05:10:34;;;;;;;26.13;15.10;;;-1.80;99.90;;;;;;4965397;28;20537;-60
2023/02/09 05:13:22;;;;;;;28.25;14.27;;;-1.80;99.90;;;;;;4973446;28;20042;-57
2023/02/09 05:16:13;;;;;;;23.80;13.52;;;-1.70;99.90;;;;;;4972738;28;20118;-54
2023/02/09 05:18:59;;;;;;;25.48;14.13;;;-1.70;99.90;;;;;;4990187;28;20553;-58
2023/02/09 05:21:45;;;;;;;23.92;14.23;;;-1.70;99.90;;;;;;4991315;28;20384;-54
2023/02/09 05:24:31;;;;;;;27.25;13.95;;;-1.70;99.90;;;;;;4992034;28;20077;-53
2023/02/09 05:27:16;;;;;;;26.50;14.20;;;-1.80;99.90;;;;;;4991333;28;20039;-59
2023/02/09 05:30:03;;;;;;;25.33;13.93;;;-1.70;99.90;;;;;;4991495;28;20038;-59
2023/02/09 05:32:49;;;;;;;26.88;13.20;;;-1.80;99.90;;;;;;4990691;28;20030;-60
2023/02/09 05:35:35;;;;;;;29.00;14.68;;;-1.80;99.90;;;;;;4963793;28;20088;-58
2023/02/09 05:38:21;;;;;;;24.75;14.02;;;-1.70;99.90;;;;;;4972885;28;20567;-57
2023/02/09 05:41:09;;;;;;;24.48;13.52;;;-1.80;99.90;;;;;;4975418;28;20030;-57
2023/02/09 05:43:55;;;;;;;28.10;15.10;;;-1.80;99.90;;;;;;4990469;28;20471;-57
2023/02/09 05:46:41;;;;;;;28.98;17.05;;;-1.80;99.90;;;;;;4977012;28;20394;-58
2023/02/09 05:49:27;;;;;;;24.77;14.30;;;-1.80;99.90;;;;;;4991918;28;20030;-60
2023/02/09 05:52:13;;;;;;;26.23;15.02;;;-1.80;99.90;;;;;;4992189;28;20038;-58
2023/02/09 05:54:59;;;;;;;29.05;15.95;;;-1.80;99.90;;;;;;4992286;28;20352;-56
2023/02/09 05:57:45;;;;;;;27.80;15.88;;;-1.80;99.90;;;;;;4990981;28;20130;-58
2023/02/09 06:00:32;;;;;;;31.27;16.58;;;-1.80;99.90;;;;;;4976806;28;20054;-58
2023/02/09 06:03:18;;;;;;;28.63;16.33;;;-1.90;99.90;;;;;;4991578;28;20031;-59
2023/02/09 06:06:04;;;;;;;30.60;18.00;;;-1.90;99.90;;;;;;4990657;28;20033;-56
2023/02/09 06:08:50;;;;;;;33.58;18.20;;;-1.90;99.90;;;;;;4991872;28;20037;-55
2023/02/09 06:11:36;;;;;;;34.05;16.67;;;-1.90;99.90;;;;;;4990667;28;20034;-56
2023/02/09 06:14:22;;;;;;;28.83;16.10;;;-1.90;99.90;;;;;;4991136;28;20113;-56
2023/02/09 06:17:08;;;;;;;32.60;17.95;;;-2.00;99.90;;;;;;4990898;28;20092;-54
2023/02/09 06:19:54;;;;;;;30.00;16.52;;;-2.00;99.90;;;;;;4991096;28;20026;-58
2023/02/09 06:22:40;;;;;;;30.40;16.48;;;-1.90;99.90;;;;;;4991325;28;20038;-58
2023/02/09 06:25:26;;;;;;;30.08;18.40;;;-2.00;99.90;;;;;;4977043;28;20506;-61
2023/02/09 06:28:12;;;;;;;38.67;19.42;;;-2.10;99.90;;;;;;4970985;28;20435;-56
2023/02/09 06:30:57;;;;;;;30.50;16.35;;;-2.10;99.90;;;;;;4974708;28;20525;-59
2023/02/09 06:33:43;;;;;;;28.10;17.77;;;-2.00;99.90;;;;;;4991334;28;20380;-58
2023/02/09 06:36:29;;;;;;;30.58;16.40;;;-2.10;99.90;;;;;;4991027;28;20795;-57
2023/02/09 06:39:15;;;;;;;30.50;17.27;;;-2.10;99.90;;;;;;4991326;28;20037;-58
2023/02/09 06:42:01;;;;;;;34.97;18.58;;;-2.10;99.90;;;;;;4991799;28;20058;-57
2023/02/09 06:44:47;;;;;;;28.85;17.08;;;-2.20;99.90;;;;;;4990929;28;20026;-60
2023/02/09 06:47:33;;;;;;;29.42;17.30;;;-2.00;99.90;;;;;;4990766;28;20038;-60
2023/02/09 06:50:19;;;;;;;33.22;17.10;;;-2.00;99.90;;;;;;4991352;28;20026;-56
2023/02/09 06:53:05;;;;;;;37.58;17.05;;;-2.00;99.90;;;;;;4990973;28;20034;-56
2023/02/09 06:55:51;;;;;;;38.33;17.23;;;-2.00;99.90;;;;;;4991107;28;20065;-57
2023/02/09 06:58:38;;;;;;;42.53;19.67;;;-1.80;99.90;;;;;;4990797;28;20018;-58
2023/02/09 07:01:24;;;;;;;47.65;18.20;;;-1.90;99.90;;;;;;4989239;28;20026;-55
2023/02/09 07:04:10;;;;;;;45.00;17.70;;;-2.00;99.90;;;;;;4990501;28;20514;-55
2023/02/09 07:06:56;;;;;;;40.08;17.45;;;-1.90;99.90;;;;;;4990043;28;20522;-58
2023/02/09 07:09:42;;;;;;;59.95;17.65;;;-1.90;99.90;;;;;;4976677;28;20113;-59
2023/02/09 07:12:28;;;;;;;41.47;17.67;;;-1.80;99.90;;;;;;4990274;28;20564;-58
2023/02/09 07:15:14;;;;;;;38.60;17.63;;;-1.80;99.90;;;;;;4989793;28;20031;-60
2023/02/09 07:18:00;;;;;;;47.90;18.45;;;-1.80;99.90;;;;;;4990433;28;20392;-57
2023/02/09 07:20:53;;;;;;;45.78;16.70;;;-1.80;99.90;;;;;;4977189;28;20121;-56
2023/02/09 07:23:40;;;;;;;61.50;19.20;;;-1.70;99.90;;;;;;4988265;28;20105;-59
2023/02/09 07:26:26;;;;;;;55.55;17.35;;;-1.70;99.90;;;;;;4988540;28;20054;-61
2023/02/09 07:29:11;;;;;;;64.85;17.95;;;-1.70;99.90;;;;;;4990301;28;20027;-58
2023/02/09 07:32:00;;;;;;;78.53;28.05;;;-1.60;99.90;;;;;;4990945;28;20027;-61
2023/02/09 07:34:46;;;;;;;116.72;33.20;;;-1.60;99.90;;;;;;4988960;28;20138;-60
2023/02/09 07:37:34;;;;;;;83.78;20.15;;;-1.50;99.90;;;;;;4990413;28;20031;-57
2023/02/09 07:40:19;;;;;;;74.65;21.05;;;-1.50;99.90;;;;;;4989238;28;20041;-60
2023/02/09 07:43:06;;;;;;;47.50;18.73;;;-1.50;99.90;;;;;;4994072;28;20046;-56
2023/02/09 07:45:52;;;;;;;55.40;18.30;;;-1.50;99.90;;;;;;4979011;28;20088;-57
2023/02/09 07:48:38;;;;;;;41.30;16.00;;;-1.50;99.90;;;;;;4994302;28;20026;-59
2023/02/09 07:51:24;;;;;;;26.98;14.15;;;-1.60;99.90;;;;;;4974525;28;20085;-57
2023/02/09 07:54:16;;;;;;;44.55;16.65;;;-1.50;99.90;;;;;;4978131;28;20034;-56
2023/02/09 07:57:02;;;;;;;41.25;15.15;;;-1.40;99.90;;;;;;4993170;28;20085;-58
2023/02/09 07:59:48;;;;;;;27.73;14.60;;;-1.40;99.90;;;;;;4993294;28;20033;-56
2023/02/09 08:02:36;;;;;;;27.30;14.75;;;-1.40;99.90;;;;;;4973840;28;20121;-57
2023/02/09 08:05:32;;;;;;;31.73;14.77;;;-1.40;99.90;;;;;;4992720;28;20503;-61
2023/02/09 08:08:17;;;;;;;;;;;-1.50;99.90;;;;;;4994115;28;20026;-59
2023/02/09 08:11:07;;;;;;;24.83;13.35;;;-1.50;99.90;;;;;;4992496;28;20333;-59
2023/02/09 08:13:55;;;;;;;31.05;14.82;;;-1.50;99.90;;;;;;4993593;28;20082;-57
2023/02/09 08:16:41;;;;;;;28.52;14.95;;;-1.40;99.90;;;;;;4991263;28;20507;-57
2023/02/09 08:19:27;;;;;;;25.98;16.13;;;-1.50;99.90;;;;;;4993598;28;20081;-58
2023/02/09 08:22:13;;;;;;;30.00;15.05;;;-1.40;99.90;;;;;;4993504;28;20518;-59
2023/02/09 08:25:01;;;;;;;26.95;13.45;;;-1.50;99.90;;;;;;4993913;28;20034;-59
2023/02/09 08:27:50;;;;;;;25.45;13.82;;;-1.50;99.90;;;;;;4993271;28;20042;-56
2023/02/09 08:30:37;;;;;;;25.00;13.95;;;-1.40;99.90;;;;;;4994256;28;20019;-61
2023/02/09 08:33:23;;;;;;;25.10;14.07;;;-1.30;99.90;;;;;;4962007;28;20034;-60
2023/02/09 08:36:11;;;;;;;30.40;14.63;;;-1.30;99.90;;;;;;4976225;28;20498;-61
2023/02/09 08:38:57;;;;;;;26.70;15.23;;;-1.30;99.90;;;;;;4991907;28;20027;-56
2023/02/09 08:41:43;;;;;;;31.05;16.00;;;-1.20;99.90;;;;;;4977824;28;20439;-58
2023/02/09 08:44:29;;;;;;;25.25;14.38;;;-1.10;99.90;;;;;;4991860;28;20029;-58
2023/02/09 08:47:15;;;;;;;25.85;14.50;;;-1.00;99.90;;;;;;4991963;28;20033;-58
2023/02/09 08:50:09;;;;;;;24.98;14.27;;;-1.00;99.90;;;;;;4991647;28;20031;-57
2023/02/09 08:52:57;;;;;;;24.65;14.65;;;-0.90;99.90;;;;;;4990660;28;20042;-54
2023/02/09 08:55:43;;;;;;;28.90;15.20;;;-1.00;99.90;;;;;;4991561;28;20023;-57
2023/02/09 08:58:30;;;;;;;24.77;14.15;;;-0.80;99.90;;;;;;4973223;28;20122;-55
2023/02/09 09:01:16;;;;;;;31.48;15.05;;;-0.80;99.90;;;;;;4978271;28;20494;-59
2023/02/09 09:04:02;;;;;;;22.60;13.73;;;-0.60;99.90;;;;;;4978300;28;20049;-59
2023/02/09 09:06:48;;;;;;;24.42;14.30;;;-0.50;99.60;;;;;;4991612;28;20042;-59
2023/02/09 09:09:34;;;;;;;22.27;13.07;;;-0.60;99.80;;;;;;4965239;28;20030;-58
2023/02/09 09:12:20;;;;;;;29.48;13.95;;;-0.60;99.90;;;;;;4993239;28;20034;-61
2023/02/09 09:15:06;;;;;;;23.77;14.23;;;-0.60;99.90;;;;;;4994781;28;20033;-61
2023/02/09 09:17:52;;;;;;;25.98;14.13;;;-0.60;99.90;;;;;;4981673;28;20041;-59
2023/02/09 09:20:39;;;;;;;23.65;13.70;;;-0.50;99.90;;;;;;4995069;28;20038;-60
2023/02/09 09:23:25;;;;;;;20.42;12.73;;;-0.30;99.80;;;;;;4993225;28;20035;-59
2023/02/09 09:26:11;;;;;;;19.95;12.55;;;-0.30;99.50;;;;;;4978939;28;20559;-61
2023/02/09 09:28:57;;;;;;;23.35;14.07;;;-0.20;99.70;;;;;;4994619;28;20583;-59
2023/02/09 09:31:43;;;;;;;23.27;13.32;;;-0.20;99.50;;;;;;4994406;28;20498;-59
2023/02/09 09:34:29;;;;;;;22.73;13.75;;;-0.10;99.60;;;;;;4994431;28;20033;-60
2023/02/09 09:37:15;;;;;;;19.40;12.35;;;-0.10;98.80;;;;;;4992952;28;20034;-59
2023/02/09 09:40:01;;;;;;;25.80;15.00;;;-0.10;98.80;;;;;;4994650;28;20033;-60
2023/02/09 09:42:51;;;;;;;24.02;12.00;;;-0.10;99.10;;;;;;4995493;28;20458;-59
2023/02/09 09:45:38;;;;;;;21.52;12.65;;;0.10;98.70;;;;;;4992719;28;20081;-60
2023/02/09 09:48:27;;;;;;;27.17;12.55;;;0.20;98.40;;;;;;4992948;28;20105;-60
2023/02/09 09:51:38;;;;;;;21.55;13.50;;;0.20;98.00;;;;;;4994455;28;20034;-58
2023/02/09 09:54:28;;;;;;;25.95;12.38;;;0.20;98.10;;;;;;4986069;28;20503;-58
2023/02/09 09:57:24;;;;;;;34.67;13.23;;;0.20;98.00;;;;;;4992250;28;20047;-58
2023/02/09 10:00:23;;;;;;;25.95;11.98;;;0.30;97.60;;;;;;4991166;28;20022;-60
2023/02/09 10:03:14;;;;;;;23.60;12.00;;;0.30;97.30;;;;;;4987482;28;20521;-61
2023/02/09 10:06:28;;;;;;;21.27;11.32;;;0.40;97.00;;;;;;4990322;28;20022;-61
2023/02/09 10:09:48;;;;;;;21.58;12.43;;;0.60;97.00;;;;;;4990241;28;20084;-57
2023/02/09 10:12:37;;;;;;;21.98;11.40;;;0.60;96.60;;;;;;4988425;28;20045;-56
2023/02/09 10:15:31;;;;;;;23.80;12.13;;;0.70;96.60;;;;;;4986571;28;20026;-57
2023/02/09 10:18:24;;;;;;;24.05;12.10;;;0.80;96.80;;;;;;4987676;28;20037;-56
2023/02/09 10:21:15;;;;;;;22.00;11.50;;;0.90;96.40;;;;;;4986714;28;20098;-59
2023/02/09 10:24:01;;;;;;;19.23;10.68;;;0.70;96.50;;;;;;4987930;28;20037;-59
2023/02/09 10:27:01;;;;;;;19.27;10.68;;;0.80;96.20;;;;;;4987648;28;20030;-60
2023/02/09 10:29:47;;;;;;;17.83;11.48;;;0.80;96.20;;;;;;4986855;28;20021;-57
2023/02/09 10:32:39;;;;;;;21.25;12.00;;;0.90;96.30;;;;;;4985750;28;20030;-57
2023/02/09 10:35:28;;;;;;;19.85;11.57;;;1.10;95.80;;;;;;4990557;28;20037;-57
2023/02/09 10:38:17;;;;;;;17.92;10.02;;;1.10;95.50;;;;;;4987236;28;20026;-56
2023/02/09 10:41:09;;;;;;;16.45;10.52;;;1.00;95.50;;;;;;4989277;28;20026;-58
2023/02/09 10:43:55;;;;;;;19.83;11.50;;;1.00;95.60;;;;;;4990930;28;20030;-59
2023/02/09 10:46:41;;;;;;;24.52;11.90;;;0.90;96.30;;;;;;4989981;28;20033;-58
2023/02/09 10:49:34;;;;;;;34.20;13.55;;;1.00;96.50;;;;;;4989847;28;20254;-59
2023/02/09 10:52:25;;;;;;;24.25;12.32;;;1.20;96.10;;;;;;4990899;28;20030;-60
2023/02/09 10:55:21;;;;;;;30.75;12.90;;;1.30;95.80;;;;;;4990252;28;20554;-61
2023/02/09 10:58:07;;;;;;;25.67;12.00;;;1.40;96.00;;;;;;4990088;28;20104;-57
2023/02/09 11:00:59;;;;;;;24.60;11.60;;;1.40;95.90;;;;;;4988565;28;20037;-56
2023/02/09 11:04:02;;;;;;;22.25;11.02;;;1.40;95.70;;;;;;4983123;28;20096;-61
2023/02/09 11:06:57;;;;;;;23.05;11.50;;;1.50;95.70;;;;;;4990994;28;20032;-63
2023/02/09 11:09:49;;;;;;;22.05;11.68;;;1.50;95.40;;;;;;4991174;28;20037;-60
2023/02/09 11:12:35;;;;;;;24.15;11.52;;;1.50;95.40;;;;;;4991038;28;20499;-57
2023/02/09 11:15:34;;;;;;;19.13;10.30;;;1.60;94.90;;;;;;4971456;28;20174;-56
2023/02/09 11:18:27;;;;;;;22.25;10.73;;;1.60;94.80;;;;;;4986431;28;20394;-60
2023/02/09 11:21:41;;;;;;;23.88;10.15;;;1.70;94.70;;;;;;4994903;28;20097;-60
2023/02/09 11:24:51;;;;;;;20.48;10.25;;;1.80;94.20;;;;;;4994745;28;20022;-59
2023/02/09 11:27:58;;;;;;;14.80;10.13;;;1.80;93.90;;;;;;4994529;28;20018;-61
2023/02/09 11:31:04;;;;;;;17.23;9.10;;;1.80;93.80;;;;;;4980547;28;20392;-59
2023/02/09 11:34:11;;;;;;;12.88;9.00;;;1.70;93.70;;;;;;4994463;28;20022;-58
2023/02/09 11:37:15;;;;;;;19.48;10.00;;;1.60;93.70;;;;;;4992972;28;20113;-59
2023/02/09 11:40:38;;;;;;;15.88;9.55;;;1.80;94.00;;;;;;4993887;28;20038;-59
2023/02/09 11:43:38;;;;;;;15.13;9.23;;;1.90;93.80;;;;;;4986571;28;20038;-60
2023/02/09 11:46:27;;;;;;;19.42;10.18;;;2.00;93.70;;;;;;4992101;28;20128;-60
2023/02/09 11:49:18;;;;;;;15.98;9.52;;;2.20;93.50;;;;;;4993115;28;20026;-59
2023/02/09 11:52:07;;;;;;;14.88;9.27;;;2.30;92.80;;;;;;4993838;28;20081;-59
2023/02/09 11:54:57;;;;;;;16.65;9.60;;;2.20;93.20;;;;;;4993679;28;20468;-58
2023/02/09 11:57:51;;;;;;;18.13;10.07;;;2.30;93.40;;;;;;4972856;28;20077;-59
2023/02/09 12:00:48;;;;;;;15.68;9.95;;;2.40;93.10;;;;;;4975489;28;20027;-56
2023/02/09 12:03:34;;;;;;;16.67;10.50;;;2.50;93.50;;;;;;4980604;28;20030;-56
2023/02/09 12:06:22;;;;;;;15.30;10.52;;;2.50;93.10;;;;;;4992956;28;20022;-58
2023/02/09 12:09:19;;;;;;;15.75;10.27;;;2.50;93.40;;;;;;4993339;28;20026;-57
2023/02/09 12:12:16;;;;;;;15.02;9.43;;;2.60;93.40;;;;;;4992433;28;20062;-59
2023/02/09 12:15:14;;;;;;;17.00;10.60;;;2.60;93.40;;;;;;4972574;28;20038;-60
2023/02/09 12:18:05;;;;;;;16.40;9.77;;;2.60;93.80;;;;;;4977821;28;20105;-60
2023/02/09 12:20:57;;;;;;;16.65;9.80;;;2.60;93.40;;;;;;4993359;28;20045;-58
2023/02/09 12:23:43;;;;;;;17.52;10.55;;;2.50;93.90;;;;;;4992849;28;20403;-57
2023/02/09 12:26:43;;;;;;;15.07;9.73;;;2.60;93.80;;;;;;4992965;28;20030;-53
2023/02/09 12:29:29;;;;;;;15.07;9.27;;;2.60;93.80;;;;;;4992047;28;20078;-54
2023/02/09 12:32:41;;;;;;;16.73;9.18;;;2.60;94.00;;;;;;4992984;28;20038;-60
2023/02/09 12:35:37;;;;;;;16.02;9.98;;;2.80;94.00;;;;;;4992226;28;20069;-55
2023/02/09 12:38:23;;;;;;;14.25;9.77;;;2.80;93.50;;;;;;4992379;28;20054;-61
2023/02/09 12:41:11;;;;;;;15.13;9.55;;;2.70;93.50;;;;;;4985364;28;20034;-60
2023/02/09 12:44:10;;;;;;;15.52;9.75;;;2.70;93.30;;;;;;4985741;28;20034;-58
2023/02/09 12:46:56;;;;;;;18.25;10.35;;;2.80;93.70;;;;;;4991811;28;20037;-59
2023/02/09 12:49:43;;;;;;;14.65;9.75;;;2.90;93.60;;;;;;4991771;28;20038;-59
2023/02/09 12:52:29;;;;;;;15.15;10.50;;;3.00;93.30;;;;;;4992550;28;20144;-56
2023/02/09 12:55:20;;;;;;;15.25;9.80;;;3.00;93.30;;;;;;4991038;28;20038;-54
2023/02/09 12:58:34;;;;;;;16.00;9.00;;;3.00;93.50;;;;;;4992072;28;20034;-55
2023/02/09 13:01:21;;;;;;;12.52;8.75;;;2.90;93.70;;;;;;4992427;28;20035;-56
2023/02/09 13:04:07;;;;;;;16.73;8.38;;;3.10;93.30;;;;;;4992341;28;20586;-60
2023/02/09 13:06:56;;;;;;;14.57;8.20;;;3.30;92.10;;;;;;4990692;28;20410;-59
2023/02/09 13:09:46;;;;;;;13.65;8.70;;;3.30;91.50;;;;;;4991332;28;20030;-58
2023/02/09 13:12:41;;;;;;;11.55;8.68;;;3.50;91.40;;;;;;4991700;28;20018;-60
2023/02/09 13:15:45;;;;;;;13.70;9.05;;;3.60;90.70;;;;;;4991193;28;20109;-59
2023/02/09 13:18:37;;;;;;;11.68;8.10;;;3.70;90.70;;;;;;4991734;28;20027;-61
2023/02/09 13:21:28;;;;;;;14.43;9.23;;;3.70;90.60;;;;;;4990743;28;20042;-60
2023/02/09 13:24:32;;;;;;;15.45;9.32;;;3.80;90.70;;;;;;4992163;28;20034;-60
2023/02/09 13:27:21;;;;;;;14.82;9.18;;;4.00;90.40;;;;;;4992446;28;20033;-60
2023/02/09 13:30:33;;;;;;;17.58;9.68;;;4.20;90.30;;;;;;4992170;28;20026;-57
2023/02/09 13:33:21;;;;;;;16.05;9.43;;;4.20;90.20;;;;;;4988958;28;20054;-60
2023/02/09 13:36:24;;;;;;;15.75;9.90;;;4.40;90.20;;;;;;4989308;28;20113;-60
2023/02/09 13:39:25;;;;;;;14.50;9.63;;;4.50;90.10;;;;;;4990344;28;20491;-58
2023/02/09 13:42:19;;;;;;;16.90;9.40;;;4.60;89.70;;;;;;4990581;28;20029;-60
2023/02/09 13:45:16;;;;;;;16.73;11.13;;;4.80;89.30;;;;;;4990561;28;20042;-58
2023/02/09 13:48:04;;;;;;;16.10;10.55;;;4.80;87.90;;;;;;4990902;28;20634;-59
2023/02/09 13:50:51;;;;;;;17.38;10.60;;;4.40;88.10;;;;;;4995659;28;20026;-59
2023/02/09 13:53:37;;;;;;;22.02;11.85;;;4.20;88.50;;;;;;4979731;28;20112;-59
2023/02/09 13:56:24;;;;;;;17.65;11.77;;;4.20;89.10;;;;;;4990187;28;20034;-58
2023/02/09 13:59:16;;;;;;;19.20;11.55;;;4.20;89.20;;;;;;5008063;28;20030;-61
2023/02/09 14:02:02;;;;;;;16.33;11.10;;;4.20;89.10;;;;;;4994059;28;20058;-58
2023/02/09 14:04:52;;;;;;;19.38;12.05;;;4.30;89.70;;;;;;4983031;28;20031;-60
2023/02/09 14:07:38;;;;;;;15.65;10.40;;;4.10;90.10;;;;;;5006704;28;20029;-56
2023/02/09 14:10:25;;;;;;;16.60;10.13;;;4.20;89.80;;;;;;4993884;28;20666;-58
2023/02/09 14:13:23;;;;;;;18.73;10.82;;;4.10;89.30;;;;;;4990756;28;20053;-57
2023/02/09 14:16:15;;;;;;;16.30;11.55;;;4.30;89.00;;;;;;4990964;28;20030;-61
2023/02/09 14:19:01;;;;;;;16.38;9.98;;;4.20;89.20;;;;;;4990917;28;20026;-59
2023/02/09 14:21:47;;;;;;;16.10;10.80;;;4.20;89.30;;;;;;4990903;28;20058;-61
2023/02/09 14:24:42;;;;;;;21.13;11.10;;;4.10;89.80;;;;;;5004393;28;20408;-60
2023/02/09 14:27:31;;;;;;;18.02;11.65;;;4.30;89.40;;;;;;4974501;28;20065;-59
2023/02/09 14:30:31;;;;;;;18.35;11.38;;;4.30;89.10;;;;;;4990702;28;20038;-59
2023/02/09 14:33:23;;;;;;;16.60;10.43;;;4.30;89.60;;;;;;4990690;28;20023;-60
2023/02/09 14:36:33;;;;;;;19.70;11.50;;;4.30;89.90;;;;;;4976134;28;20101;-59